Time;durP1;ratioP1;P1;durP2;ratioP2;P2;SDS_P1;SDS_P2;PMS_P1;PMS_P2;Temp;Humidity;BMP_temperature;BMP_pressure;BME280_temperature;BME280_humidity;BME280_pressure;Samples;Min_cycle;Max_cycle;Signal;HPM_P1;HPM_P2
2023/01/02 00:01:09;;;;;;;;;;;13.60;99.90;;;13.14;70.33;97410.94;5050681;28;19963;-45
2023/01/02 00:03:35;;;;;;;;;;;13.50;99.90;;;13.05;70.88;97402.59;5047313;28;20023;-44
2023/01/02 00:06:02;;;;;;;;;;;13.40;99.90;;;12.93;72.91;97385.47;5051401;28;19920;-44
2023/01/02 00:08:28;;;;;;;;;;;13.40;99.90;;;12.89;74.24;97395.34;5052394;28;19916;-44
2023/01/02 00:10:53;;;;;;;;;;;13.30;99.90;;;12.81;73.68;97384.25;5051755;28;19924;-44
2023/01/02 00:13:19;;;;;;;;;;;13.20;99.90;;;12.80;73.76;97385.19;5049223;28;19972;-44
2023/01/02 00:15:45;;;;;;;;;;;13.20;99.90;;;12.80;74.42;97386.03;5041940;28;20369;-43
2023/01/02 00:18:10;;;;;;;;;;;13.20;99.90;;;12.82;73.99;97385.97;5052233;28;19935;-43
2023/01/02 00:20:36;;;;;;;;;;;13.20;99.90;;;12.83;72.60;97387.69;5052117;28;19970;-44
2023/01/02 00:23:01;;;;;;;;;;;13.20;99.90;;;12.86;72.88;97379.59;5043447;28;19982;-45
2023/01/02 00:25:27;;;;;;;;;;;13.20;99.90;;;12.91;70.01;97377.59;5051801;28;20280;-48
2023/01/02 00:27:54;;;;;;;;;;;13.30;99.90;;;13.01;68.03;97370.09;5051871;28;22479;-44
2023/01/02 00:30:19;;;;;;;;;;;13.40;99.90;;;13.06;68.62;97375.16;5054731;28;19924;-44
2023/01/02 00:32:45;;;;;;;;;;;13.40;99.90;;;13.10;68.30;97372.31;5051795;28;19924;-44
2023/01/02 00:35:11;;;;;;;;;;;13.50;99.90;;;13.12;67.94;97359.00;5053875;28;20385;-45
2023/01/02 00:37:36;;;;;;;;;;;13.50;99.90;;;12.87;68.54;97312.50;5052948;28;19928;-44
2023/01/02 00:40:03;;;;;;;;;;;13.50;99.90;;;13.07;69.21;97348.63;5051863;28;19939;-46
2023/01/02 00:42:28;;;;;;;;;;;13.50;99.90;;;13.16;67.45;97358.75;5050169;28;19982;-45
2023/01/02 00:44:54;;;;;;;;;;;13.50;99.90;;;13.21;68.06;97353.25;5045234;28;19933;-44
2023/01/02 00:47:19;;;;;;;;;;;13.60;99.90;;;13.23;66.81;97355.84;5044879;28;20718;-45
2023/01/02 00:49:45;;;;;;;;;;;13.60;99.90;;;13.22;67.77;97364.69;5047803;28;19920;-44
2023/01/02 00:52:11;;;;;;;;;;;13.60;99.90;;;13.12;69.13;97343.13;5052995;28;19920;-45
2023/01/02 00:54:36;;;;;;;;;;;13.60;99.90;;;13.13;69.15;97347.47;5052258;28;19952;-44
2023/01/02 00:57:02;;;;;;;;;;;13.50;99.90;;;13.09;68.25;97345.91;5053177;28;20003;-44
2023/01/02 00:59:27;;;;;;;;;;;13.50;99.90;;;13.07;68.99;97359.22;5049319;28;20376;-44
2023/01/02 01:01:53;;;;;;;;;;;13.50;99.90;;;13.08;68.72;97358.28;5050782;28;20332;-45
2023/01/02 01:04:19;;;;;;;;;;;13.50;99.90;;;13.01;70.02;97355.97;5049656;28;19929;-45
2023/01/02 01:06:44;;;;;;;;;;;13.50;99.90;;;13.04;67.36;97372.56;5050057;28;19959;-44
2023/01/02 01:09:10;;;;;;;;;;;13.40;99.90;;;13.08;66.23;97371.53;5050196;28;19920;-43
2023/01/02 01:11:35;;;;;;;;;;;13.40;99.90;;;13.11;63.94;97376.66;5057042;28;19963;-44
2023/01/02 01:14:01;;;;;;;;;;;13.50;99.90;;;13.25;61.49;97380.44;5048535;28;19925;-45
2023/01/02 01:16:27;;;;;;;;;;;13.60;99.90;;;13.34;60.70;97390.63;5046870;28;20287;-44
2023/01/02 01:18:56;;;;;;;;;;;13.60;99.90;;;13.38;60.72;97381.59;5052477;28;19961;-48
2023/01/02 01:21:22;;;;;;;;;;;13.70;99.90;;;13.42;61.14;97369.91;5053639;28;20594;-45
2023/01/02 01:23:52;;;;;;;;;;;13.80;99.90;;;13.42;61.98;97388.44;5053551;28;19924;-45
2023/01/02 01:26:19;;;;;;;;;;;13.80;99.90;;;13.39;63.24;97378.03;5052835;28;19940;-43
2023/01/02 01:28:45;;;;;;;;;;;13.70;99.90;;;13.35;63.90;97373.78;5045502;28;20349;-46
2023/01/02 01:31:12;;;;;;;;;;;13.70;99.90;;;13.22;65.09;97372.66;5043765;28;20019;-44
2023/01/02 01:33:40;;;;;;;;;;;13.70;99.90;;;13.20;66.28;97385.09;5040232;28;19946;-45
2023/01/02 01:36:09;;;;;;;;;;;13.60;99.90;;;13.10;67.78;97387.31;5047112;28;19955;-46
2023/01/02 01:38:34;;;;;;;;;;;13.50;99.90;;;12.97;69.79;97389.69;5049911;28;19954;-44
2023/01/02 01:41:00;;;;;;;;;;;13.40;99.90;;;12.90;70.74;97393.53;5045935;28;19920;-44
2023/01/02 01:43:36;;;;;;;;;;;13.30;99.90;;;12.82;70.59;97399.19;5046939;28;19921;-45
2023/01/02 01:46:02;;;;;;;;;;;13.20;99.90;;;12.71;71.95;97391.75;5045685;28;19931;-44
2023/01/02 01:48:28;;;;;;;;;;;13.10;99.90;;;12.68;71.94;97396.31;5038633;28;19920;-45
2023/01/02 01:50:53;;;;;;;;;;;13.10;99.90;;;12.66;70.33;97393.75;5043019;28;19956;-45
2023/01/02 01:53:20;;;;;;;;;;;13.10;99.90;;;12.71;71.10;97393.56;5041110;28;20027;-44
2023/01/02 01:55:50;;;;;;;;;;;13.10;99.90;;;12.71;71.43;97390.91;5054027;28;20184;-45
2023/01/02 01:58:20;;;;;;;;;;;13.10;99.90;;;12.71;73.16;97383.81;5049522;28;19919;-44
2023/01/02 02:00:46;;;;;;;;;;;13.10;99.90;;;12.75;69.46;97393.31;5049169;28;20007;-44
2023/01/02 02:03:14;;;;;;;;;;;13.10;99.90;;;12.73;70.04;97389.88;5050823;28;19925;-44
2023/01/02 02:05:41;;;;;;;;;;;13.10;99.90;;;12.72;71.45;97392.59;5047311;28;19923;-44
2023/01/02 02:08:22;;;;;;;;;;;13.10;99.90;;;12.70;71.59;97392.66;5054689;28;21148;-44
2023/01/02 02:10:49;;;;;;;;;;;13.10;99.90;;;12.64;72.98;97385.03;5062074;28;20406;-46
2023/01/02 02:13:14;;;;;;;;;;;13.00;99.90;;;12.60;73.20;97386.94;5045541;28;19924;-44
2023/01/02 02:16:16;;;;;;;;;;;13.00;99.90;;;12.57;72.62;97380.94;5044777;28;19990;-45
2023/01/02 02:19:12;;;;;;;;;;;13.00;99.90;;;12.59;72.32;97381.72;5051309;22;19933;-60
2023/01/02 02:22:07;;;;;;;;;;;13.00;99.90;;;12.63;71.11;97380.66;5051800;28;20169;-60
2023/01/02 02:25:09;;;;;;;;;;;13.00;99.90;;;12.72;70.16;97377.59;5049301;28;19990;-60
2023/01/02 02:28:08;;;;;;;;;;;13.10;99.90;;;12.75;71.15;97364.22;5054762;28;19920;-60
2023/01/02 02:30:39;;;;;;;;;;;13.10;99.90;;;12.88;68.34;97358.34;5050030;28;19922;-60
2023/01/02 02:33:26;;;;;;;;;;;13.20;99.90;;;12.97;67.25;97356.16;5047804;28;23251;-60
2023/01/02 02:36:28;;;;;;;;;;;13.30;99.90;;;13.03;67.77;97333.81;5045552;28;19947;-60
2023/01/02 02:39:21;;;;;;;;;;;13.40;99.90;;;13.08;67.31;97345.06;5032309;28;19993;-60
2023/01/02 02:41:57;;;;;;;;;;;13.40;99.90;;;13.05;68.73;97347.84;5041111;28;20502;-61
2023/01/02 02:44:34;;;;;;;;;;;13.40;99.90;;;12.97;70.77;97347.31;5043715;28;19928;-60
2023/01/02 02:47:06;;;;;;;;;;;13.40;99.90;;;12.89;70.59;97330.97;5047558;28;19967;-60
2023/01/02 02:49:38;;;;;;;;;;;13.30;99.90;;;12.88;68.36;97332.72;5040034;28;20513;-60
2023/01/02 02:52:15;;;;;;;;;;;13.30;99.90;;;12.89;67.36;97336.25;5056845;28;19920;-60
2023/01/02 02:54:46;;;;;;;;;;;13.20;99.90;;;12.91;67.22;97326.47;5051430;28;19931;-60
2023/01/02 02:57:12;;;;;;;;;;;13.30;99.90;;;12.99;66.35;97329.56;5047865;28;20431;-60
2023/01/02 02:59:40;;;;;;;;;;;13.30;99.90;;;13.00;66.87;97328.66;5048110;28;19916;-60
2023/01/02 03:02:06;;;;;;;;;;;13.30;99.90;;;13.00;66.46;97326.00;5042266;28;20696;-60
2023/01/02 03:04:32;;;;;;;;;;;13.30;99.90;;;13.07;65.28;97321.28;5043772;28;19970;-60
2023/01/02 03:07:15;;;;;;;;;;;13.40;99.90;;;13.09;64.30;97314.13;5048270;28;21002;-59
2023/01/02 03:10:06;;;;;;;;;;;13.40;99.90;;;13.10;65.04;97307.88;5048249;28;20423;-60
2023/01/02 03:12:50;;;;;;;;;;;13.40;99.90;;;13.12;64.71;97312.19;5042589;28;20204;-60
2023/01/02 03:15:24;;;;;;;;;;;13.50;99.90;;;13.16;64.05;97307.59;5043534;28;19939;-60
2023/01/02 03:18:22;;;;;;;;;;;13.50;99.90;;;13.24;62.56;97321.31;5048136;28;20042;-60
2023/01/02 03:21:01;;;;;;;;;;;13.50;99.90;;;13.21;63.97;97323.25;5051625;28;19969;-60
2023/01/02 03:23:28;;;;;;;;;;;13.50;99.90;;;13.23;62.34;97322.25;5047742;28;20004;-60
2023/01/02 03:25:55;;;;;;;;;;;13.60;99.90;;;13.21;62.54;97317.94;5041859;28;20030;-60
2023/01/02 03:28:22;;;;;;;;;;;13.50;99.90;;;13.18;62.04;97321.63;5047525;28;19920;-63
2023/01/02 03:30:49;;;;;;;;;;;13.50;99.90;;;13.14;62.78;97314.75;5060717;28;19916;-60
2023/01/02 03:33:26;;;;;;;;;;;13.50;99.90;;;13.17;62.82;97317.25;5049604;28;19932;-60
2023/01/02 03:35:55;;;;;;;;;;;13.50;99.90;;;13.07;61.82;97303.59;5045260;28;19948;-60
2023/01/02 03:38:25;;;;;;;;;;;13.50;99.90;;;13.20;62.10;97326.84;5049936;28;19973;-60
2023/01/02 03:40:59;;;;;;;;;;;13.50;99.90;;;13.13;61.83;97332.41;5039802;28;19917;-60
2023/01/02 03:43:30;;;;;;;;;;;13.50;99.90;;;13.18;63.05;97321.63;5061553;28;20460;-60
2023/01/02 03:46:02;;;;;;;;;;;13.50;99.90;;;13.10;62.80;97323.78;5037752;28;19920;-60
2023/01/02 03:48:40;;;;;;;;;;;13.50;99.90;;;13.01;64.50;97318.91;5048534;28;19939;-58
2023/01/02 03:51:06;;;;;;;;;;;13.40;99.90;;;12.97;64.57;97321.75;5052919;28;19965;-59
2023/01/02 03:53:33;;;;;;;;;;;13.30;99.90;;;12.92;64.08;97329.03;5048477;28;19924;-58
2023/01/02 03:56:13;;;;;;;;;;;13.30;99.90;;;12.90;64.18;97327.38;5050319;28;20379;-59
2023/01/02 03:58:47;;;;;;;;;;;13.30;99.90;;;12.91;63.58;97327.31;5048791;28;19920;-58
2023/01/02 04:01:20;;;;;;;;;;;13.20;99.90;;;12.99;63.08;97327.81;5046521;28;20394;-59
2023/01/02 04:03:49;;;;;;;;;;;13.30;99.90;;;13.01;62.69;97325.09;5040741;28;19936;-59
2023/01/02 04:06:23;;;;;;;;;;;13.30;99.90;;;13.00;63.21;97328.66;5046786;28;20069;-58
2023/01/02 04:09:08;;;;;;;;;;;13.30;99.90;;;12.93;62.48;97321.94;5049827;28;20014;-59
2023/01/02 04:11:36;;;;;;;;;;;13.30;99.90;;;13.03;62.57;97341.75;5039149;28;20014;-58
2023/01/02 04:14:08;;;;;;;;;;;13.30;99.90;;;12.95;63.80;97331.50;5043097;28;19921;-58
2023/01/02 04:16:34;;;;;;;;;;;13.30;99.90;;;12.88;63.91;97326.59;5046800;28;20015;-58
2023/01/02 04:19:06;;;;;;;;;;;13.20;99.90;;;12.92;63.18;97336.09;5047529;28;19962;-58
2023/01/02 04:21:33;;;;;;;;;;;13.20;99.90;;;12.88;63.30;97329.25;5051196;28;19923;-59
2023/01/02 04:24:05;;;;;;;;;;;13.20;99.90;;;12.69;64.50;97298.38;5045968;28;19952;-59
2023/01/02 04:26:43;;;;;;;;;;;13.20;99.90;;;12.75;65.17;97315.72;5040909;28;19924;-59
2023/01/02 04:29:09;;;;;;;;;;;13.10;99.90;;;12.72;63.34;97308.81;5041447;28;19917;-59
2023/01/02 04:31:45;;;;;;;;;;;13.10;99.90;;;12.76;63.59;97304.22;5047855;28;19917;-59
2023/01/02 04:34:13;;;;;;;;;;;13.10;99.90;;;12.75;63.16;97299.84;5044433;28;20361;-59
2023/01/02 04:36:39;;;;;;;;;;;13.10;99.90;;;12.76;64.19;97299.78;5041718;28;20290;-59
2023/01/02 04:39:05;;;;;;;;;;;13.10;99.90;;;12.67;63.48;97292.28;5042383;28;19916;-59
2023/01/02 04:41:32;;;;;;;;;;;13.10;99.90;;;12.70;62.10;97297.41;5043409;28;19924;-59
2023/01/02 04:43:58;;;;;;;;;;;13.00;99.90;;;12.72;61.90;97295.59;5045633;28;19941;-59
2023/01/02 04:46:25;;;;;;;;;;;13.00;99.90;;;12.69;61.25;97290.44;5036259;28;19925;-59
2023/01/02 04:48:51;;;;;;;;;;;13.00;99.90;;;12.70;62.45;97296.56;5041300;28;19917;-59
2023/01/02 04:51:17;;;;;;;;;;;13.00;99.90;;;12.69;60.22;97286.94;5039731;28;19921;-58
2023/01/02 04:53:42;;;;;;;;;;;13.00;99.90;;;12.75;59.61;97295.41;5041005;28;19970;-58
2023/01/02 04:56:08;;;;;;;;;;;13.10;99.90;;;12.72;60.12;97297.34;5042619;28;20043;-59
2023/01/02 04:58:34;;;;;;;;;;;13.10;99.90;;;12.74;61.29;97298.13;5045165;28;20023;-59
2023/01/02 05:00:59;;;;;;;;;;;13.10;99.90;;;12.76;61.10;97288.34;5032973;28;20369;-59
2023/01/02 05:03:25;;;;;;;;;;;13.10;99.90;;;12.80;59.62;97296.06;5045017;28;19967;-58
2023/01/02 05:05:58;;;;;;;;;;;13.10;99.90;;;12.91;58.98;97305.28;5036969;28;19999;-58
2023/01/02 05:08:24;;;;;;;;;;;13.20;99.90;;;12.92;58.73;97305.22;5036317;28;19932;-58
2023/01/02 05:10:49;;;;;;;;;;;13.20;99.90;;;12.93;59.02;97308.72;5032117;28;19924;-58
2023/01/02 05:13:15;;;;;;;;;;;13.20;99.90;;;12.98;58.66;97304.06;5029875;28;20545;-57
2023/01/02 05:15:40;;;;;;;;;;;13.30;99.90;;;12.98;57.43;97304.06;5040257;28;20308;-58
2023/01/02 05:18:06;;;;;;;;;;;13.30;99.90;;;12.98;57.10;97310.19;5031165;28;20435;-57
2023/01/02 05:20:32;;;;;;;;;;;13.30;99.90;;;13.02;57.33;97304.78;5035305;28;19920;-58
2023/01/02 05:25:42;;;;;;;;;;;13.30;99.90;;;12.92;57.17;97307.84;5039284;28;19939;-58
2023/01/02 05:28:07;;;;;;;;;;;13.20;99.90;;;12.84;58.05;97303.88;5040394;28;19924;-58
2023/01/02 05:30:33;;;;;;;;;;;13.20;99.90;;;12.82;58.03;97316.31;5042110;28;19942;-59
2023/01/02 05:32:58;;;;;;;;;;;13.20;99.90;;;12.77;58.54;97309.44;5043400;28;19973;-58
2023/01/02 05:35:24;;;;;;;;;;;13.10;99.90;;;12.72;59.16;97315.88;5040171;28;19928;-59
2023/01/02 05:37:50;;;;;;;;;;;13.10;99.90;;;12.67;59.24;97309.94;5039487;28;20074;-58
2023/01/02 05:40:15;;;;;;;;;;;13.00;99.90;;;12.67;58.72;97309.94;5047655;28;19961;-58
2023/01/02 05:42:41;;;;;;;;;;;13.00;99.90;;;12.62;59.72;97314.59;5041360;28;19990;-58
2023/01/02 05:45:07;;;;;;;;;;;12.90;99.90;;;12.63;59.29;97305.72;5046045;28;20378;-58
2023/01/02 05:47:33;;;;;;;;;;;13.00;99.90;;;12.66;58.50;97305.59;5033703;28;19924;-58
2023/01/02 05:49:58;;;;;;;;;;;13.00;99.90;;;12.67;58.37;97296.69;5059968;28;19928;-59
2023/01/02 05:52:24;;;;;;;;;;;12.90;99.90;;;12.55;57.40;97284.94;5043147;28;19963;-60
2023/01/02 05:54:49;;;;;;;;;;;13.00;99.90;;;12.71;57.59;97301.78;5041889;28;20423;-58
2023/01/02 05:57:15;;;;;;;;;;;13.00;99.90;;;12.76;56.97;97302.44;5044576;28;19916;-58
2023/01/02 05:59:40;;;;;;;;;;;13.10;99.90;;;12.88;56.82;97305.41;5039732;28;20038;-59
2023/01/02 06:02:06;;;;;;;;;;;13.20;99.90;;;12.86;55.98;97304.63;5038941;28;20400;-58
2023/01/02 06:04:32;;;;;;;;;;;13.20;99.90;;;12.88;55.85;97305.41;5044746;28;20066;-58
2023/01/02 06:06:57;;;;;;;;;;;13.20;99.90;;;12.93;56.29;97311.34;5045154;28;19955;-58
2023/01/02 06:09:23;;;;;;;;;;;13.30;99.90;;;13.00;55.90;97318.06;5050778;28;20039;-60
2023/01/02 06:11:49;;;;;;;;;;;13.30;99.90;;;13.12;55.65;97311.34;5049106;28;20019;-58
2023/01/02 06:14:14;;;;;;;;;;;13.40;99.90;;;12.98;55.76;97294.31;5044295;28;20338;-58
2023/01/02 06:16:40;;;;;;;;;;;13.40;99.90;;;13.15;55.64;97309.41;5044596;28;20082;-57
2023/01/02 06:19:06;;;;;;;;;;;13.50;99.90;;;13.14;55.21;97318.25;5052528;28;20243;-57
2023/01/02 06:21:32;;;;;;;;;;;13.50;99.90;;;13.10;55.85;97318.47;5049972;28;19931;-58
2023/01/02 06:23:58;;;;;;;;;;;13.40;99.90;;;13.06;55.95;97316.91;5051088;28;20348;-57
2023/01/02 06:26:26;;;;;;;;;;;13.40;99.90;;;12.98;56.72;97314.66;5050687;28;19920;-57
2023/01/02 06:28:53;;;;;;;;;;;13.30;99.90;;;12.95;55.41;97323.56;5046558;28;19939;-57
2023/01/02 06:31:22;;;;;;;;;;;13.20;99.90;;;12.86;56.79;97325.81;5049210;28;19924;-57
2023/01/02 06:33:52;;;;;;;;;;;13.20;99.90;;;12.83;56.26;97321.53;5045939;28;20015;-57
2023/01/02 06:36:18;;;;;;;;;;;13.20;99.90;;;12.80;55.57;97327.81;5044805;28;20417;-57
2023/01/02 06:38:44;;;;;;;;;;;13.20;99.90;;;12.83;55.24;97325.94;5042572;28;19920;-58
2023/01/02 06:41:10;;;;;;;;;;;13.20;99.90;;;12.85;55.76;97329.38;5044621;28;20436;-57
2023/01/02 06:43:40;;;;;;;;;;;13.20;99.90;;;12.79;55.81;97334.06;5041908;28;19928;-57
2023/01/02 06:46:06;;;;;;;;;;;13.20;99.90;;;12.79;55.60;97349.06;5048934;28;19986;-57
2023/01/02 06:48:32;;;;;;;;;;;13.20;99.90;;;12.80;55.66;97361.38;5046772;28;20447;-57
2023/01/02 06:50:58;;;;;;;;;;;13.20;99.90;;;12.76;56.33;97351.88;5041946;28;20015;-57
2023/01/02 06:53:27;;;;;;;;;;;13.10;99.90;;;12.73;57.25;97362.59;5040072;28;19916;-57
2023/01/02 06:55:56;;;;;;;;;;;13.10;99.90;;;12.70;57.37;97357.41;5044368;28;20487;-57
2023/01/02 06:58:23;;;;;;;;;;;13.10;99.90;;;12.64;57.66;97368.31;5043069;28;20688;-57
2023/01/02 07:00:49;;;;;;;;;;;13.00;99.90;;;12.48;58.12;97345.19;5043299;28;20009;-57
2023/01/02 07:03:15;;;;;;;;;;;13.00;99.90;;;12.57;58.82;97370.34;5041846;28;19962;-57
2023/01/02 07:05:42;;;;;;;;;;;12.90;99.90;;;12.51;59.26;97368.84;5047558;28;19974;-57
2023/01/02 07:08:08;;;;;;;;;;;12.90;99.90;;;12.49;58.83;97380.41;5046651;28;19917;-57
2023/01/02 07:10:33;;;;;;;;;;;12.80;99.90;;;12.51;58.10;97382.09;5034518;28;20383;-57
2023/01/02 07:12:59;;;;;;;;;;;12.90;99.90;;;12.47;58.38;97379.63;5044661;28;19932;-57
2023/01/02 07:15:24;;;;;;;;;;;12.80;99.90;;;12.47;57.68;97377.88;5039472;28;20367;-60
2023/01/02 07:17:50;;;;;;;;;;;12.80;99.90;;;12.46;57.34;97384.06;5031810;28;20536;-61
2023/01/02 07:20:16;;;;;;;;;;;12.80;99.90;;;12.36;57.94;97383.63;5041576;28;20015;-61
2023/01/02 07:22:41;;;;;;;;;;;12.70;99.90;;;12.34;58.37;97396.03;5041019;28;19924;-62
2023/01/02 07:25:07;;;;;;;;;;;12.70;99.90;;;12.29;59.07;97399.81;5037685;28;21267;-62
2023/01/02 07:27:33;;;;;;;;;;;12.60;99.90;;;12.22;59.44;97397.44;5041047;28;19955;-61
2023/01/02 07:29:58;;;;;;;;;;;12.60;99.90;;;12.17;60.05;97404.72;5031957;28;20019;-61
2023/01/02 07:32:24;;;;;;;;;;;12.60;99.90;;;12.11;60.82;97404.97;5045311;28;20034;-61
2023/01/02 07:34:50;;;;;;;;;;;12.50;99.90;;;12.02;62.40;97414.19;5044238;28;19917;-61
2023/01/02 07:37:16;;;;;;;;;;;12.40;99.90;;;11.96;63.05;97409.13;5035069;28;19925;-62
2023/01/02 07:39:42;;;;;;;;;;;12.40;99.90;;;11.88;63.82;97416.50;5044772;28;19920;-61
2023/01/02 07:42:07;;;;;;;;;;;12.30;99.90;;;11.84;64.01;97420.19;5048770;28;19960;-61
2023/01/02 07:44:33;;;;;;;;;;;12.20;99.90;;;11.80;64.33;97415.97;5045035;28;19931;-62
2023/01/02 07:46:59;;;;;;;;;;;12.20;99.90;;;11.76;64.77;97423.16;5052458;28;19924;-61
2023/01/02 07:49:24;;;;;;;;;;;12.10;99.90;;;11.69;66.69;97426.13;5042280;28;20359;-62
2023/01/02 07:51:50;;;;;;;;;;;12.10;99.90;;;11.62;67.67;97425.50;5051815;28;19978;-62
2023/01/02 07:54:16;;;;;;;;;;;12.00;99.90;;;11.60;67.97;97428.19;5045228;28;19947;-54
2023/01/02 07:56:41;;;;;;;;;;;12.00;99.90;;;11.58;67.95;97434.47;5044251;28;19928;-50
2023/01/02 07:59:07;;;;;;;;;;;12.00;99.90;;;11.58;68.37;97429.19;5043543;28;19923;-50
2023/01/02 08:01:32;;;;;;;;;;;12.00;99.90;;;11.59;67.43;97426.50;5040801;28;20262;-46
2023/01/02 08:03:58;;;;;;;;;;;12.00;99.90;;;11.72;65.68;97423.31;5048654;28;20093;-49
2023/01/02 08:06:24;;;;;;;;;;;12.10;99.90;;;11.80;65.80;97430.03;5041523;28;19974;-48
2023/01/02 08:08:49;;;;;;;;;;;12.10;99.90;;;11.83;65.76;97435.19;5046878;28;20300;-46
2023/01/02 08:11:18;;;;;;;;;;;12.20;99.90;;;11.89;65.30;97434.06;5043789;28;21185;-52
2023/01/02 08:13:44;;;;;;;;;;;12.20;99.90;;;11.93;65.19;97438.31;5036095;28;19968;-58
2023/01/02 08:16:12;;;;;;;;;;;12.30;99.90;;;11.96;61.33;97437.34;5041910;28;20066;-58
2023/01/02 08:18:37;;;;;;;;;;;12.30;99.90;;;12.02;61.55;97435.31;5052030;22;19931;-39
2023/01/02 08:21:03;;;;;;;;;;;12.40;99.90;;;12.07;63.88;97440.41;5033984;28;20808;-39
2023/01/02 08:23:29;;;;;;;;;;;12.50;99.90;;;12.14;63.55;97443.66;5016621;28;19929;-39
2023/01/02 08:26:03;;;;;;;;;;;12.50;99.90;;;12.21;61.92;97445.09;5022818;28;19979;-39
2023/01/02 08:28:29;;;;;;;;;;;12.60;99.90;;;12.14;60.76;97423.34;5033072;28;19921;-39
2023/01/02 08:30:55;;;;;;;;;;;12.70;99.90;;;12.41;58.50;97460.09;5042596;28;20261;-40
2023/01/02 08:33:20;;;;;;;;;;;12.80;99.90;;;12.50;59.16;97451.78;5049038;28;19964;-40
2023/01/02 08:35:46;;;;;;;;;;;12.90;99.90;;;12.57;57.25;97455.88;5042674;28;19921;-39
2023/01/02 08:38:12;;;;;;;;;;;13.00;99.90;;;12.69;57.26;97456.28;5039446;28;19921;-40
2023/01/02 08:40:38;;;;;;;;;;;13.00;99.90;;;12.74;57.39;97455.13;5042508;28;19924;-40
2023/01/02 08:43:05;;;;;;;;;;;13.10;99.90;;;12.83;55.63;97463.56;5049390;28;20369;-40
2023/01/02 08:45:31;;;;;;;;;;;13.20;99.90;;;12.92;54.44;97466.69;5056548;28;19920;-40
2023/01/02 08:47:57;;;;;;;;;;;13.30;99.90;;;13.03;54.41;97470.59;5054167;28;19932;-40
2023/01/02 08:50:22;;;;;;;;;;;13.40;99.90;;;13.08;54.62;97480.09;5047086;28;19952;-39
2023/01/02 08:52:48;;;;;;;;;;;13.40;99.90;;;13.10;54.61;97474.69;5052108;28;19924;-39
2023/01/02 08:55:13;;;;;;;;;;;13.50;99.90;;;13.16;54.83;97471.78;5047183;28;19917;-39
2023/01/02 08:57:39;;;;;;;;;;;13.50;99.90;;;13.17;54.69;97462.88;5047322;28;19959;-39
2023/01/02 09:00:05;;;;;;;;;;;13.50;99.90;;;13.18;53.76;97464.63;5050767;28;20244;-40
2023/01/02 09:02:31;;;;;;;;;;;13.50;99.90;;;13.20;53.47;97467.19;5059647;28;19928;-40
2023/01/02 09:04:57;;;;;;;;;;;13.50;99.90;;;13.22;54.36;97473.28;5061708;28;20500;-40
2023/01/02 09:07:23;;;;;;;;;;;13.60;99.90;;;13.16;54.63;97488.50;5062612;28;19928;-40
2023/01/02 09:09:49;;;;;;;;;;;13.50;99.90;;;13.08;55.65;97471.25;5049496;28;20391;-40
2023/01/02 09:12:14;;;;;;;;;;;13.50;99.90;;;13.11;55.33;97485.22;5037255;28;19924;-40
2023/01/02 09:14:40;;;;;;;;;;;13.50;99.90;;;13.10;54.58;97483.50;5050222;28;19923;-40
2023/01/02 09:17:05;;;;;;;;;;;13.50;99.90;;;13.05;55.39;97493.44;5055248;28;20013;-40
2023/01/02 09:19:31;;;;;;;;;;;13.40;99.90;;;12.98;54.98;97492.84;5053077;28;19962;-40
2023/01/02 09:21:57;;;;;;;;;;;13.40;99.90;;;12.95;56.05;97492.13;5031731;28;19924;-40
2023/01/02 09:24:22;;;;;;;;;;;13.30;99.90;;;12.89;56.13;97503.00;5054122;28;19935;-40
2023/01/02 09:26:48;;;;;;;;;;;13.30;99.90;;;12.86;57.23;97500.50;5043863;28;19927;-40
2023/01/02 09:29:14;;;;;;;;;;;13.30;99.90;;;12.87;55.86;97503.06;5048365;28;19924;-40
2023/01/02 09:31:40;;;;;;;;;;;13.30;99.90;;;12.94;55.30;97508.97;5044552;28;19971;-41
2023/01/02 09:34:06;;;;;;;;;;;13.30;99.90;;;13.01;54.58;97513.06;5025450;28;19932;-43
2023/01/02 09:36:31;;;;;;;;;;;13.40;99.90;;;13.01;54.23;97501.59;5045062;28;19939;-41
2023/01/02 09:38:59;;;;;;;;;;;13.40;99.90;;;12.89;53.88;97487.97;5052567;28;19932;-44
2023/01/02 09:41:39;;;;;;;;;;;13.50;99.90;;;13.11;53.77;97521.44;5049510;28;19925;-43
2023/01/02 09:44:14;;;;;;;;;;;13.50;99.90;;;13.15;54.12;97521.22;5024983;28;20407;-49
2023/01/02 09:46:48;;;;;;;;;;;13.50;99.90;;;13.20;53.51;97528.94;5052543;28;19920;-42
2023/01/02 09:49:26;;;;;;;;;;;13.50;99.90;;;13.26;52.90;97535.75;5031244;28;19920;-43
2023/01/02 09:51:52;;;;;;;;;;;13.60;99.90;;;13.29;53.79;97527.69;5031953;28;20423;-41
2023/01/02 09:54:22;;;;;;;;;;;13.70;99.90;;;13.39;53.47;97533.44;5028569;28;19920;-42
2023/01/02 09:56:53;;;;;;;;;;;13.70;99.90;;;13.45;53.30;97541.97;5052574;28;19970;-41
2023/01/02 09:59:28;;;;;;;;;;;13.80;99.90;;;13.46;53.58;97535.75;5037416;28;19924;-41
2023/01/02 10:02:11;;;;;;;;;;;13.80;99.90;;;13.53;53.80;97541.59;5033995;28;20110;-40
2023/01/02 10:05:33;;;;;;;;;;;13.80;99.90;;;13.53;53.41;97547.78;5044221;28;19927;-42
2023/01/02 10:08:21;;;;;;;;;;;13.90;99.90;;;13.65;52.14;97551.63;5004929;28;19999;-41
2023/01/02 10:11:22;;;;;;;;;;;13.90;99.90;;;13.59;53.50;97527.22;5025941;28;19946;-41
2023/01/02 10:13:58;;;;;;;;;;;14.00;99.90;;;13.77;52.61;97558.16;5034432;28;19917;-41
2023/01/02 10:16:30;;;;;;;;;;;14.10;99.90;;;13.83;52.02;97557.84;5045078;28;19927;-40
2023/01/02 10:18:59;;;;;;;;;;;14.20;99.90;;;13.88;51.53;97553.19;5037213;28;19968;-41
2023/01/02 10:21:35;;;;;;;;;;;14.20;99.90;;;13.79;50.95;97529.78;5002833;28;19978;-41
2023/01/02 10:24:22;;;;;;;;;;;14.30;99.90;;;14.02;51.04;97565.81;5010823;28;20006;-42
2023/01/02 10:26:51;;;;;;;;;;;14.40;99.90;;;14.06;50.71;97566.50;5017421;28;20464;-41
2023/01/02 10:29:29;;;;;;;;;;;14.40;99.90;;;14.11;51.22;97564.50;5031533;28;19920;-41
2023/01/02 10:31:59;;;;;;;;;;;14.50;99.90;;;14.11;50.63;97557.41;5034982;28;19964;-40
2023/01/02 10:34:36;;;;;;;;;;;14.50;99.90;;;14.15;49.20;97563.41;5019054;28;19920;-40
2023/01/02 10:37:10;;;;;;;;;;;14.50;99.50;;;14.19;49.58;97572.91;5031388;28;19939;-38
2023/01/02 10:39:36;;;;;;;;;;;14.60;99.70;;;14.23;50.07;97549.75;5048393;28;19925;-40
2023/01/02 10:42:03;;;;;;;;;;;14.60;99.70;;;14.31;48.64;97559.06;5044180;28;19917;-40
2023/01/02 10:44:33;;;;;;;;;;;14.60;98.70;;;14.31;48.58;97561.72;5028993;28;19979;-40
2023/01/02 10:47:11;;;;;;;;;;;14.70;98.90;;;13.99;48.63;97493.50;5030992;28;20384;-40
2023/01/02 10:49:37;;;;;;;;;;;14.70;98.80;;;14.52;49.16;97550.97;5026683;28;19920;-40
2023/01/02 10:52:32;;;;;;;;;;;14.80;99.30;;;14.52;49.30;97567.75;5029381;28;19924;-40
2023/01/02 10:54:59;;;;;;;;;;;14.80;99.00;;;14.41;50.44;97548.00;5034603;28;20015;-41
2023/01/02 10:57:35;;;;;;;;;;;14.90;99.70;;;14.57;49.83;97558.69;5027993;28;20685;-40
2023/01/02 11:00:03;;;;;;;;;;;14.90;99.50;;;14.44;48.78;97524.81;5043594;28;20175;-41
2023/01/02 11:02:36;;;;;;;;;;;15.00;98.90;;;14.63;48.11;97553.97;5047287;28;20252;-40
2023/01/02 11:05:03;;;;;;;;;;;15.00;98.00;;;14.68;47.47;97559.06;5043846;28;20019;-40
2023/01/02 11:07:32;;;;;;;;;;;15.00;97.70;;;14.67;48.09;97559.97;5038791;28;19920;-41
2023/01/02 11:09:58;;;;;;;;;;;15.00;98.00;;;14.67;49.95;97567.94;5029543;28;20881;-38
2023/01/02 11:12:24;;;;;;;;;;;15.00;99.40;;;14.63;49.13;97553.13;5026984;28;19960;-41
2023/01/02 11:14:49;;;;;;;;;;;15.00;99.10;;;14.73;48.37;97572.09;5032432;28;19920;-40
2023/01/02 11:17:20;;;;;;;;;;;15.10;98.30;;;14.85;47.92;97563.50;5029052;28;19966;-40
2023/01/02 11:19:51;;;;;;;;;;;15.20;98.30;;;15.03;47.77;97567.84;5014937;28;19917;-42
2023/01/02 11:22:18;;;;;;;;;;;15.40;98.10;;;15.13;47.02;97538.13;5015042;28;21024;-43
2023/01/02 11:24:52;;;;;;;;;;;15.60;97.60;;;15.45;45.13;97560.31;5018434;28;20487;-42
2023/01/02 11:27:18;;;;;;;;;;;15.80;96.90;;;15.70;45.35;97559.00;5050307;28;19916;-42
2023/01/02 11:29:46;;;;;;;;;;;16.00;96.20;;;15.86;44.02;97559.88;5048821;28;20399;-44